This is the latest recevied weather packets stored in our database for station/object N5JXS. If no packets are shown the sender has not sent any weather packets the latest 10 day(s).
| Time | Temp. | Humidity | Pressure | Rain* | Wind** | Luminosity | Snow |
|---|---|---|---|---|---|---|---|
| 1777755309 | 17.22° C | 22% | 1024.4 hPa | 0 mm | - | 618 W/m² | - |
| 1777755006 | 17.78° C | 20% | 1024.6 hPa | 0 mm | - | 628 W/m² | - |
| 1777754703 | 17.22° C | 22% | 1024.2 hPa | 0 mm | - | 646 W/m² | - |
| 1777754401 | 17.22° C | 21% | 1024.6 hPa | 0 mm | - | 632 W/m² | - |
| 1777754097 | 17.22° C | 23% | 1024.6 hPa | 0 mm | - | 631 W/m² | - |
| 1777753794 | 16.67° C | 24% | 1024.5 hPa | 0 mm | - | 652 W/m² | - |
| 1777753490 | 16.11° C | 24% | 1024.6 hPa | 0 mm | - | 645 W/m² | - |
| 1777753189 | 16.67° C | 22% | 1024.6 hPa | 0 mm | - | 655 W/m² | - |
| 1777752884 | 16.11° C | 23% | 1024.6 hPa | 0 mm | - | 666 W/m² | - |
| 1777752581 | 17.22° C | 22% | 1024.7 hPa | 0 mm | - | 677 W/m² | - |
| 1777752277 | 17.22° C | 21% | 1024.6 hPa | 0 mm | - | 698 W/m² | - |
| 1777751975 | 16.11° C | 23% | 1024.5 hPa | 0 mm | - | 705 W/m² | - |
| 1777751672 | 16.11° C | 24% | 1024.6 hPa | 0 mm | - | 720 W/m² | - |
| 1777751368 | 16.67° C | 24% | 1024.5 hPa | 0 mm | - | 705 W/m² | - |
| 1777751065 | 16.67° C | 22% | 1024.8 hPa | 0 mm | - | 714 W/m² | - |
| 1777750761 | 16.67° C | 22% | 1025 hPa | 0 mm | - | 716 W/m² | - |
| 1777750459 | 16.67° C | 23% | 1024.7 hPa | 0 mm | - | 724 W/m² | - |
| 1777750154 | 16.67° C | 23% | 1025 hPa | 0 mm | - | 715 W/m² | - |
| 1777749851 | 16.67° C | 22% | 1025.1 hPa | 0 mm | - | 718 W/m² | - |
| 1777749548 | 16.11° C | 24% | 1025.1 hPa | 0 mm | - | 712 W/m² | - |
| 1777749246 | 16.67° C | 22% | 1024.8 hPa | 0 mm | - | 720 W/m² | - |
| 1777748943 | 16.11° C | 24% | 1025.2 hPa | 0 mm | - | 710 W/m² | - |
| 1777748640 | 16.11° C | 24% | 1025.3 hPa | 0 mm | - | 722 W/m² | - |
| 1777748336 | 16.11° C | 22% | 1025.1 hPa | 0 mm | - | 733 W/m² | - |
| 1777748032 | 16.11° C | 22% | 1025.3 hPa | 0 mm | - | 727 W/m² | - |
* Rain latest hour (hover to see other rain measurements)
** Current wind speed in m/s (hover to see current wind gust speed)